Main page
METAR-TAF:

METAR-TAF

Airports :

Pskov Airport

Pskov, Russia

latitude: 57-47-06N, longitude: 028-23-54E, elevation: 47 m

Current weather observation

The report was made 1 hour and 9 minutes ago, at 22:00 UTC
Calm wind
Temperature 0°C
Humidity 100%
Pressure 1002 hPa
Visibility: 0150 m
fog

METAR: ULOO 272200Z 00000MPS 0150 R19/0450N FG VV001 00/00 Q1002 R19/920135 NOSIG RMK QBB050 OBST OBSC QFE747

Time: 02:09 (23:09 UTC)

Forecast

The report was made 3 hours and 15 minutes ago, at 19:54 UTC
Forecast valid from 27 at 21 UTC to 28 at 06 UTC
Wind 6 kt from the Southeast
Visibility: 0300 m
Overcast at a height of 200 ft
fog
Temporary
from 27 at 21 UTC to 28 at 06 UTC
Visibility: 1200 m
at a height of 300 ft
mist

TAF: ULOO 271954Z 2721/2806 14003MPS 0300 FG OVC002 TEMPO 2721/2806 1200 BR VV003

Weather observations and forecasts of more than 4000 airports (METAR and TAF reports).

The available stations are represented by yellow and red dots on the map.

Hover mouse over dot to see the name of the station.

Then click to see weather observations and forecasts.

To change the map : click on the green buttons with a black cross to zoom in, on the green button with a dash to zoom out, or on the green arrows for adjacent maps.


METAR-TAF: